createdAt,value
2017-11-24T00:00:47.736Z,100598.58
2017-11-24T00:02:51.131Z,100603.44
2017-11-24T00:04:54.425Z,100592.76
2017-11-24T00:06:57.741Z,100594.11
2017-11-24T00:09:01.042Z,100587.45
2017-11-24T00:11:04.333Z,100587.45
2017-11-24T00:13:07.677Z,100590.66
2017-11-24T00:15:11.079Z,100592.94
2017-11-24T00:17:14.422Z,100588.89
2017-11-24T00:19:17.734Z,100596.67
2017-11-24T00:21:21.026Z,100588.05
2017-11-24T00:23:24.317Z,100584.00
2017-11-24T00:25:27.638Z,100578.59
2017-11-24T00:27:30.931Z,100575.59
2017-11-24T00:29:34.304Z,100571.00
2017-11-24T00:31:37.617Z,100559.39
2017-11-24T00:33:40.918Z,100566.14
2017-11-24T00:35:44.285Z,100571.55
2017-11-24T00:37:47.627Z,100574.25
2017-11-24T00:39:50.958Z,100571.55
2017-11-24T00:41:54.405Z,100569.88
2017-11-24T00:43:57.741Z,100564.47
2017-11-24T00:46:01.148Z,100558.64
2017-11-24T00:48:04.521Z,100564.47
2017-11-24T00:50:07.842Z,100558.64
2017-11-24T00:52:11.150Z,100555.43
2017-11-24T00:54:14.447Z,100568.10
2017-11-24T00:56:17.754Z,100558.64
2017-11-24T00:58:21.050Z,100556.03
2017-11-24T01:00:24.338Z,100550.54
2017-11-24T01:02:27.654Z,100544.30
2017-11-24T01:04:31.041Z,100530.38
2017-11-24T01:06:34.429Z,100533.59
2017-11-24T01:08:37.786Z,100529.95
2017-11-24T01:10:41.123Z,100525.06
2017-11-24T01:12:44.421Z,100523.62
2017-11-24T01:14:47.798Z,100525.06
2017-11-24T01:16:51.090Z,100526.00
2017-11-24T01:18:54.424Z,100521.94
2017-11-24T01:20:57.729Z,100516.25
2017-11-24T01:23:01.053Z,100504.19
2017-11-24T01:25:04.351Z,100505.95
2017-11-24T01:27:07.735Z,100492.03
2017-11-24T01:29:11.025Z,100488.81
2017-11-24T01:31:14.319Z,100488.48
2017-11-24T01:33:17.701Z,100482.58
2017-11-24T01:35:20.998Z,100472.70
2017-11-24T01:37:24.385Z,100475.41
2017-11-24T01:39:27.701Z,100470.00
2017-11-24T01:41:31.033Z,100461.98
2017-11-24T01:43:34.378Z,100470.09
2017-11-24T01:45:37.685Z,100467.81
2017-11-24T01:47:40.976Z,100470.09
2017-11-24T01:49:44.336Z,100453.47
2017-11-24T01:51:47.649Z,100453.05
2017-11-24T01:53:50.945Z,100460.34
2017-11-24T01:55:54.242Z,100459.41
2017-11-24T01:57:57.589Z,100449.12
2017-11-24T02:00:00.989Z,100439.16
2017-11-24T02:02:04.282Z,100433.34
2017-11-24T02:04:07.598Z,100431.15
2017-11-24T02:06:10.889Z,100421.28
2017-11-24T02:08:14.190Z,100407.35
2017-11-24T02:10:17.510Z,100408.28
2017-11-24T02:12:20.844Z,100403.81
2017-11-24T02:14:24.212Z,100399.34
2017-11-24T02:16:27.529Z,100399.34
2017-11-24T02:18:30.892Z,100414.20
2017-11-24T02:20:34.250Z,100438.09
2017-11-24T02:22:37.691Z,100452.53
2017-11-24T02:24:40.975Z,100454.30
2017-11-24T02:26:44.349Z,100444.84
2017-11-24T02:28:47.738Z,100427.70
2017-11-24T02:30:51.033Z,100416.06
2017-11-24T02:32:54.335Z,100402.56
2017-11-24T02:34:57.654Z,100410.66
2017-11-24T02:37:01.006Z,100411.59
2017-11-24T02:39:04.307Z,100408.47
2017-11-24T02:41:07.630Z,100417.54
2017-11-24T02:43:10.926Z,100418.05
2017-11-24T02:45:14.217Z,100407.67
2017-11-24T02:47:17.538Z,100390.92
2017-11-24T02:49:20.834Z,100389.27
2017-11-24T02:51:24.134Z,100395.39
2017-11-24T02:53:27.532Z,100396.32
2017-11-24T02:55:30.837Z,100389.27
2017-11-24T02:57:34.118Z,100382.11
2017-11-24T02:59:37.501Z,100376.19
2017-11-24T03:01:40.889Z,100374.00
2017-11-24T03:03:44.277Z,100372.74
2017-11-24T03:05:47.678Z,100368.59
2017-11-24T03:07:50.973Z,100364.23
2017-11-24T03:09:54.270Z,100374.61
2017-11-24T03:11:57.586Z,100367.02
2017-11-24T03:14:00.881Z,100368.38
2017-11-24T03:16:04.232Z,100373.39
2017-11-24T03:18:07.613Z,100371.20
2017-11-24T03:20:10.903Z,100378.47
2017-11-24T03:22:14.360Z,100368.08
2017-11-24T03:24:17.689Z,100358.63
2017-11-24T03:26:20.977Z,100356.86
2017-11-24T03:28:24.267Z,100362.67
2017-11-24T03:30:28.388Z,100374.31
2017-11-24T03:32:31.686Z,100371.71
2017-11-24T03:34:34.982Z,100367.76
2017-11-24T03:36:38.297Z,100368.17
2017-11-24T03:38:41.593Z,100348.76
2017-11-24T03:40:44.884Z,100353.73
2017-11-24T03:42:48.225Z,100338.88
2017-11-24T03:44:51.672Z,100335.25
2017-11-24T03:46:54.994Z,100314.16
2017-11-24T03:48:58.395Z,100308.76
2017-11-24T03:51:02.607Z,100291.30
2017-11-24T03:53:05.901Z,100279.15
2017-11-24T03:55:09.213Z,100255.36
2017-11-24T03:57:12.500Z,100239.16
2017-11-24T03:59:15.801Z,100236.03
2017-11-24T04:01:19.110Z,100229.41
2017-11-24T04:03:22.405Z,100223.08
2017-11-24T04:05:25.709Z,100221.73
2017-11-24T04:07:29.036Z,100218.61
2017-11-24T04:09:32.371Z,100219.83
2017-11-24T04:11:35.642Z,100218.19
2017-11-24T04:13:38.989Z,100201.98
2017-11-24T04:15:42.391Z,100195.66
2017-11-24T04:17:45.679Z,100183.18
2017-11-24T04:19:49.024Z,100186.30
2017-11-24T04:21:52.308Z,100201.16
2017-11-24T04:23:55.740Z,100214.66
2017-11-24T04:25:59.051Z,100245.81
2017-11-24T04:28:02.337Z,100261.08
2017-11-24T04:30:05.715Z,100267.31
2017-11-24T04:32:09.033Z,100259.21
2017-11-24T04:34:12.320Z,100243.43
2017-11-24T04:36:15.609Z,100223.69
2017-11-24T04:38:18.981Z,100208.84
2017-11-24T04:40:22.361Z,100204.37
2017-11-24T04:42:25.662Z,100194.92
2017-11-24T04:44:28.973Z,100187.75
2017-11-24T04:46:32.268Z,100183.28
2017-11-24T04:48:35.565Z,100172.37
2017-11-24T04:50:38.920Z,100147.66
2017-11-24T04:52:42.210Z,100162.61
2017-11-24T04:54:45.514Z,100231.89
2017-11-24T04:56:48.837Z,100189.61
2017-11-24T04:58:52.173Z,100239.98
2017-11-24T05:00:55.527Z,100274.58
2017-11-24T05:02:58.849Z,100223.27
2017-11-24T05:05:02.210Z,100231.47
2017-11-24T05:07:05.482Z,100225.97
2017-11-24T05:09:08.804Z,100224.20
2017-11-24T05:11:12.092Z,100226.91
2017-11-24T05:13:15.405Z,100200.41
2017-11-24T05:15:18.713Z,100221.59
2017-11-24T05:17:22.087Z,100235.65
2017-11-24T05:21:35.020Z,100239.70
2017-11-24T05:23:38.367Z,100234.30
2017-11-24T05:25:41.788Z,100231.59
2017-11-24T05:27:45.142Z,100245.48
2017-11-24T05:29:48.442Z,100254.00
2017-11-24T05:31:51.769Z,100256.70
2017-11-24T05:33:55.157Z,100256.70
2017-11-24T05:35:58.546Z,100275.19
2017-11-24T05:38:01.849Z,100280.72
2017-11-24T05:40:05.241Z,100277.09
2017-11-24T05:42:08.550Z,100283.84
2017-11-24T05:44:11.913Z,100285.19
2017-11-24T05:46:15.301Z,100294.93
2017-11-24T05:48:18.594Z,100305.02
2017-11-24T05:50:21.952Z,100303.25
2017-11-24T05:52:25.374Z,100299.11
2017-11-24T05:54:28.676Z,100315.70
2017-11-24T05:56:31.980Z,100320.71
2017-11-24T05:58:35.297Z,100321.09
2017-11-24T06:00:38.589Z,100321.64
2017-11-24T06:02:41.891Z,100313.54
2017-11-24T06:04:45.201Z,100316.34
2017-11-24T06:06:48.499Z,100310.84
2017-11-24T06:08:51.814Z,100302.73
2017-11-24T06:10:55.158Z,100303.67
2017-11-24T06:12:58.449Z,100315.41
2017-11-24T06:15:01.824Z,100313.64
2017-11-24T06:17:05.135Z,100297.02
2017-11-24T06:19:08.444Z,100292.03
2017-11-24T06:21:11.737Z,100290.27
2017-11-24T06:23:15.107Z,100286.63
2017-11-24T06:25:18.421Z,100274.06
2017-11-24T06:27:21.870Z,100271.88
2017-11-24T06:29:25.302Z,100257.86
2017-11-24T06:31:28.617Z,100244.36
2017-11-24T06:33:31.913Z,100243.94
2017-11-24T06:35:35.277Z,100235.94
2017-11-24T06:37:38.579Z,100232.72
2017-11-24T06:39:41.933Z,100250.69
2017-11-24T06:41:45.250Z,100242.59
2017-11-24T06:43:48.641Z,100232.30
2017-11-24T06:45:51.989Z,100251.63
2017-11-24T06:47:55.380Z,100265.55
2017-11-24T06:49:58.706Z,100272.72
2017-11-24T06:52:02.033Z,100286.31
2017-11-24T06:54:05.401Z,100301.58
2017-11-24T06:56:08.800Z,100311.87
2017-11-24T06:58:12.075Z,100328.07
2017-11-24T07:00:15.403Z,100343.86
2017-11-24T07:02:18.697Z,100365.78
2017-11-24T07:04:21.985Z,100382.50
2017-11-24T07:06:25.313Z,100381.15
2017-11-24T07:08:28.606Z,100373.05
2017-11-24T07:10:31.975Z,100340.64
2017-11-24T07:12:35.274Z,100321.64
2017-11-24T07:14:38.587Z,100345.95
2017-11-24T07:16:42.050Z,100349.45
2017-11-24T07:18:45.378Z,100349.88
2017-11-24T07:20:48.670Z,100348.10
2017-11-24T07:22:52.121Z,100350.70
2017-11-24T07:24:55.418Z,100362.34
2017-11-24T07:26:58.711Z,100367.84
2017-11-24T07:29:02.154Z,100361.09
2017-11-24T07:31:05.525Z,100366.91
2017-11-24T07:33:08.910Z,100380.83
2017-11-24T07:35:12.268Z,100402.44
2017-11-24T07:37:15.701Z,100407.33
2017-11-24T07:39:19.005Z,100413.24
2017-11-24T07:41:22.299Z,100405.65
2017-11-24T07:43:25.624Z,100407.73
2017-11-24T07:45:29.053Z,100410.63
2017-11-24T07:47:32.352Z,100404.09
2017-11-24T07:49:35.662Z,100420.06
2017-11-24T07:51:38.989Z,100425.69
2017-11-24T07:53:42.292Z,100435.32
2017-11-24T07:55:45.610Z,100454.02
2017-11-24T07:57:48.908Z,100446.53
2017-11-24T07:59:52.219Z,100452.02
2017-11-24T08:01:55.569Z,100462.95
2017-11-24T08:03:58.954Z,100460.25
2017-11-24T08:06:02.249Z,100458.27
2017-11-24T08:08:05.592Z,100459.01
2017-11-24T08:10:08.886Z,100471.48
2017-11-24T08:12:13.662Z,100482.06
2017-11-24T08:14:16.976Z,100481.04
2017-11-24T08:16:20.277Z,100471.37
2017-11-24T08:18:23.577Z,100466.72
2017-11-24T08:20:26.914Z,100469.23
2017-11-24T08:22:30.236Z,100461.84
2017-11-24T08:24:33.559Z,100469.24
2017-11-24T08:26:36.905Z,100475.03
2017-11-24T08:28:41.173Z,100473.40
2017-11-24T08:30:44.662Z,100475.46
2017-11-24T08:32:47.976Z,100487.01
2017-11-24T08:34:51.327Z,100483.58
2017-11-24T08:36:54.708Z,100481.63
2017-11-24T08:38:58.110Z,100485.06
2017-11-24T08:41:01.520Z,100488.90
2017-11-24T08:43:04.880Z,100494.20
2017-11-24T08:45:08.198Z,100490.86
2017-11-24T08:47:17.185Z,100490.77
2017-11-24T08:49:26.177Z,100494.22
2017-11-24T08:51:29.574Z,100494.41
2017-11-24T08:53:32.869Z,100505.13
2017-11-24T08:55:36.160Z,100504.52
2017-11-24T08:57:39.477Z,100514.18
2017-11-24T08:59:42.834Z,100518.97
2017-11-24T09:01:46.123Z,100514.83
2017-11-24T09:03:49.449Z,100530.72
2017-11-24T09:05:52.809Z,100522.53
2017-11-24T09:07:56.161Z,100521.47
2017-11-24T09:09:59.449Z,100531.25
2017-11-24T09:12:02.898Z,100537.40
2017-11-24T09:14:06.217Z,100537.69
2017-11-24T09:16:09.621Z,100542.91
2017-11-24T09:18:12.920Z,100543.62
2017-11-24T09:20:16.241Z,100544.46
2017-11-24T09:22:19.628Z,100549.77
2017-11-24T09:24:22.922Z,100553.25
2017-11-24T09:26:26.219Z,100553.13
2017-11-24T09:28:29.603Z,100554.28
2017-11-24T09:30:32.896Z,100550.66
2017-11-24T09:32:36.450Z,100554.61
2017-11-24T09:34:39.778Z,100573.41
2017-11-24T09:36:43.174Z,100578.20
2017-11-24T09:38:46.490Z,100576.75
2017-11-24T09:40:49.788Z,100583.84
2017-11-24T09:42:53.108Z,100582.27
2017-11-24T09:44:56.403Z,100587.25
2017-11-24T09:46:59.720Z,100588.00
2017-11-24T09:49:03.029Z,100604.93
2017-11-24T09:51:06.376Z,100604.93
2017-11-24T09:53:09.720Z,100604.00
2017-11-24T09:55:13.010Z,100607.02
2017-11-24T09:57:16.312Z,100612.24
2017-11-24T09:59:19.645Z,100617.10
2017-11-24T10:01:22.949Z,100605.36
2017-11-24T10:03:26.242Z,100613.28
2017-11-24T10:05:29.618Z,100622.65
2017-11-24T10:07:33.662Z,100623.87
2017-11-24T10:09:36.960Z,100626.91
2017-11-24T10:11:40.382Z,100626.39
2017-11-24T10:13:43.678Z,100633.89
2017-11-24T10:15:47.023Z,100635.63
2017-11-24T10:17:50.326Z,100634.09
2017-11-24T10:19:53.827Z,100638.05
2017-11-24T10:24:37.429Z,100631.08
2017-11-24T10:26:40.822Z,100631.41
2017-11-24T10:28:44.127Z,100624.04
2017-11-24T10:30:47.455Z,100626.62
2017-11-24T10:32:50.856Z,100633.19
2017-11-24T10:34:54.192Z,100634.45
2017-11-24T10:36:57.498Z,100635.28
2017-11-24T10:39:00.804Z,100647.84
2017-11-24T10:41:04.117Z,100645.55
2017-11-24T10:43:07.417Z,100651.80
2017-11-24T10:45:10.799Z,100659.81
2017-11-24T10:47:14.126Z,100669.28
2017-11-24T10:49:17.448Z,100665.55
2017-11-24T10:51:21.693Z,100672.73
2017-11-24T10:53:25.006Z,100678.02
2017-11-24T10:55:28.473Z,100680.20
2017-11-24T10:57:31.748Z,100678.76
2017-11-24T10:59:35.045Z,100686.87
2017-11-24T11:01:38.381Z,100689.99
2017-11-24T11:03:43.212Z,100687.61
2017-11-24T11:05:46.702Z,100685.72
2017-11-24T11:07:50.017Z,100680.22
2017-11-24T11:09:53.316Z,100684.69
2017-11-24T11:11:56.618Z,100691.78
2017-11-24T11:13:59.957Z,100702.08
2017-11-24T11:16:03.293Z,100708.84
2017-11-24T11:18:06.597Z,100710.91
2017-11-24T11:20:09.930Z,100716.31
2017-11-24T11:22:13.226Z,100709.88
2017-11-24T11:24:16.517Z,100708.95
2017-11-24T11:26:19.909Z,100713.84
2017-11-24T11:28:23.193Z,100710.63
2017-11-24T11:30:26.495Z,100710.08
2017-11-24T11:32:29.872Z,100718.20
2017-11-24T11:34:33.222Z,100717.59
2017-11-24T11:36:36.516Z,100714.56
2017-11-24T11:38:39.853Z,100724.95
2017-11-24T11:40:43.200Z,100722.67
2017-11-24T11:42:46.536Z,100719.97
2017-11-24T11:44:49.881Z,100719.97
2017-11-24T11:46:53.186Z,100717.69
2017-11-24T11:48:56.495Z,100726.31
2017-11-24T11:50:59.805Z,100724.56
2017-11-24T11:53:03.098Z,100728.08
2017-11-24T11:55:06.427Z,100729.14
2017-11-24T11:57:09.749Z,100732.68
2017-11-24T11:59:13.107Z,100737.67
2017-11-24T12:01:16.412Z,100736.73
2017-11-24T12:03:19.730Z,100744.85
2017-11-24T12:05:23.110Z,100749.84
2017-11-24T12:07:26.417Z,100742.41
2017-11-24T12:09:29.812Z,100746.73
2017-11-24T12:11:33.110Z,100750.88
2017-11-24T12:13:36.406Z,100750.27
2017-11-24T12:15:39.793Z,100747.38
2017-11-24T12:17:43.096Z,100749.30
2017-11-24T12:19:46.398Z,100745.05
2017-11-24T12:21:49.913Z,100738.39
2017-11-24T12:23:53.198Z,100738.24
2017-11-24T12:25:56.540Z,100738.30
2017-11-24T12:27:59.871Z,100743.47
2017-11-24T12:30:03.214Z,100744.75
2017-11-24T12:32:06.554Z,100751.55
2017-11-24T12:34:09.892Z,100750.91
2017-11-24T12:36:13.234Z,100756.05
2017-11-24T12:38:16.560Z,100752.97
2017-11-24T12:40:19.955Z,100759.66
2017-11-24T12:42:23.282Z,100753.53
2017-11-24T12:44:26.658Z,100745.64
2017-11-24T12:46:29.985Z,100753.20
2017-11-24T12:48:33.323Z,100752.56
2017-11-24T12:50:37.598Z,100745.48
2017-11-24T12:52:40.994Z,100746.91
2017-11-24T12:54:44.309Z,100751.95
2017-11-24T12:56:47.712Z,100743.58
2017-11-24T12:58:51.056Z,100742.50
2017-11-24T13:00:54.350Z,100747.33
2017-11-24T13:02:57.678Z,100740.90
2017-11-24T13:05:00.993Z,100744.38
2017-11-24T13:07:04.420Z,100744.61
2017-11-24T13:09:07.708Z,100742.78
2017-11-24T13:11:11.022Z,100742.80
2017-11-24T13:13:14.331Z,100746.28
2017-11-24T13:15:17.669Z,100744.53
2017-11-24T13:17:21.018Z,100743.30
2017-11-24T13:19:24.401Z,100752.78
2017-11-24T13:21:27.874Z,100748.00
2017-11-24T13:23:31.395Z,100750.85
2017-11-24T13:25:34.784Z,100751.39
2017-11-24T13:27:38.053Z,100746.61
2017-11-24T13:29:41.456Z,100748.11
2017-11-24T13:31:44.745Z,100759.99
2017-11-24T13:33:48.142Z,100757.08
2017-11-24T13:35:51.536Z,100760.62
2017-11-24T13:37:54.901Z,100764.91
2017-11-24T13:39:58.342Z,100775.83
2017-11-24T13:42:01.671Z,100778.74
2017-11-24T13:44:05.066Z,100787.39
2017-11-24T13:46:08.390Z,100781.89
2017-11-24T13:48:11.787Z,100780.23
2017-11-24T13:50:15.086Z,100780.98
2017-11-24T13:52:18.430Z,100782.56
2017-11-24T13:54:21.778Z,100792.23
2017-11-24T13:56:25.149Z,100791.09
2017-11-24T13:58:28.457Z,100785.91
2017-11-24T14:00:31.770Z,100793.42
2017-11-24T14:02:35.114Z,100799.13
2017-11-24T14:04:38.501Z,100798.52
2017-11-24T14:06:41.821Z,100804.26
2017-11-24T14:08:45.193Z,100801.76
2017-11-24T14:10:48.477Z,100803.53
2017-11-24T14:12:51.960Z,100813.33
2017-11-24T14:14:55.264Z,100816.66
2017-11-24T14:16:58.561Z,100811.25
2017-11-24T14:19:02.078Z,100819.17
2017-11-24T14:21:05.365Z,100818.62
2017-11-24T14:23:08.659Z,100821.66
2017-11-24T14:25:11.993Z,100820.22
2017-11-24T14:27:15.270Z,100823.64
2017-11-24T14:29:18.569Z,100818.23
2017-11-24T14:31:21.905Z,100813.16
2017-11-24T14:33:25.202Z,100816.61
2017-11-24T14:35:28.525Z,100820.15
2017-11-24T14:37:31.830Z,100819.73
2017-11-24T14:39:35.317Z,100826.36
2017-11-24T14:41:38.608Z,100828.80
2017-11-24T14:43:42.094Z,100824.73
2017-11-24T14:45:45.445Z,100828.80
2017-11-24T14:47:48.735Z,100829.93
2017-11-24T14:49:52.103Z,100826.38
2017-11-24T14:51:55.406Z,100833.05
2017-11-24T14:53:58.693Z,100834.83
2017-11-24T14:56:03.009Z,100836.09
2017-11-24T14:58:06.333Z,100840.14
2017-11-24T15:00:09.624Z,100832.88
2017-11-24T15:02:13.061Z,100837.23
2017-11-24T15:04:16.364Z,100831.81
2017-11-24T15:06:19.658Z,100831.72
2017-11-24T15:08:22.966Z,100830.37
2017-11-24T15:10:26.277Z,100829.44
2017-11-24T15:12:30.290Z,100824.96
2017-11-24T15:14:33.624Z,100823.52
2017-11-24T15:16:36.975Z,100819.04
2017-11-24T15:18:40.264Z,100825.71
2017-11-24T15:20:43.610Z,100833.31
2017-11-24T15:22:46.893Z,100833.31
2017-11-24T15:24:50.186Z,100831.84
2017-11-24T15:26:53.597Z,100836.31
2017-11-24T15:28:56.965Z,100836.31
2017-11-24T15:31:00.270Z,100841.30
2017-11-24T15:33:03.648Z,100839.02
2017-11-24T15:35:06.942Z,100845.36
2017-11-24T15:37:10.262Z,100840.94
2017-11-24T15:39:13.569Z,100842.38
2017-11-24T15:41:16.961Z,100845.59
2017-11-24T15:43:20.286Z,100845.17
2017-11-24T15:45:23.617Z,100851.00
2017-11-24T15:47:27.864Z,100849.33
2017-11-24T15:49:31.194Z,100851.61
2017-11-24T15:51:34.522Z,100847.67
2017-11-24T15:53:38.064Z,100847.34
2017-11-24T15:55:41.408Z,100846.84
2017-11-24T15:57:44.734Z,100839.75
2017-11-24T15:59:48.045Z,100836.53
2017-11-24T16:01:51.334Z,100838.30
2017-11-24T16:03:54.649Z,100840.58
2017-11-24T16:05:57.941Z,100841.52
2017-11-24T16:08:01.270Z,100842.36
2017-11-24T16:10:04.590Z,100844.22
2017-11-24T16:12:08.861Z,100844.22
2017-11-24T16:14:12.157Z,100837.97
2017-11-24T16:16:15.503Z,100845.67
2017-11-24T16:18:18.887Z,100845.24
2017-11-24T16:20:22.257Z,100843.89
2017-11-24T16:22:25.657Z,100839.84
2017-11-24T16:24:28.946Z,100843.89
2017-11-24T16:26:32.249Z,100840.47
2017-11-24T16:28:35.689Z,100847.23
2017-11-24T16:30:39.014Z,100849.00
2017-11-24T16:32:42.510Z,100844.95
2017-11-24T16:34:45.827Z,100849.39
2017-11-24T16:36:49.208Z,100850.36
2017-11-24T16:38:52.493Z,100846.39
2017-11-24T16:40:56.790Z,100842.84
2017-11-24T16:43:00.250Z,100842.43
2017-11-24T16:45:03.574Z,100844.20
2017-11-24T16:47:06.973Z,100836.60
2017-11-24T16:49:10.375Z,100834.41
2017-11-24T16:51:13.669Z,100838.46
2017-11-24T16:53:17.003Z,100840.75
2017-11-24T16:55:20.307Z,100835.85
2017-11-24T16:57:23.619Z,100842.22
2017-11-24T16:59:26.977Z,100838.68
2017-11-24T17:01:30.269Z,100841.05
2017-11-24T17:03:33.578Z,100845.62
2017-11-24T17:05:36.895Z,100841.78
2017-11-24T17:07:40.187Z,100849.56
2017-11-24T17:09:44.289Z,100856.00
2017-11-24T17:11:47.605Z,100857.35
2017-11-24T17:13:50.906Z,100856.63
2017-11-24T17:15:54.214Z,100856.30
2017-11-24T17:17:57.514Z,100860.03
2017-11-24T17:20:00.806Z,100858.89
2017-11-24T17:22:04.114Z,100858.56
2017-11-24T17:24:07.425Z,100861.45
2017-11-24T17:26:10.820Z,100853.88
2017-11-24T17:28:14.206Z,100862.17
2017-11-24T17:30:17.539Z,100862.27
2017-11-24T17:32:20.853Z,100863.92
2017-11-24T17:34:24.177Z,100864.44
2017-11-24T17:36:27.521Z,100859.66
2017-11-24T17:38:30.834Z,100857.98
2017-11-24T17:40:34.248Z,100859.00
2017-11-24T17:42:37.556Z,100860.98
2017-11-24T17:44:40.988Z,100859.30
2017-11-24T17:46:44.316Z,100857.53
2017-11-24T17:48:47.671Z,100868.44
2017-11-24T17:50:51.118Z,100868.44
2017-11-24T17:52:54.418Z,100867.30
2017-11-24T17:54:57.758Z,100867.81
2017-11-24T17:57:01.134Z,100872.89
2017-11-24T17:59:04.466Z,100872.47
2017-11-24T18:01:07.781Z,100868.08
2017-11-24T18:03:11.085Z,100873.61
2017-11-24T18:05:14.486Z,100875.89
2017-11-24T18:07:17.786Z,100869.22
2017-11-24T18:09:21.091Z,100876.91
2017-11-24T18:11:24.429Z,100871.59
2017-11-24T18:13:27.749Z,100871.30
2017-11-24T18:15:31.051Z,100875.95
2017-11-24T18:17:34.403Z,100871.81
2017-11-24T18:19:37.762Z,100863.46
2017-11-24T18:21:41.054Z,100873.85
2017-11-24T18:23:44.353Z,100872.08
2017-11-24T18:25:47.672Z,100870.44
2017-11-24T18:27:50.977Z,100877.19
2017-11-24T18:29:54.301Z,100871.03
2017-11-24T18:31:57.629Z,100874.66
2017-11-24T18:34:00.985Z,100872.47
2017-11-24T18:36:04.342Z,100874.37
2017-11-24T18:38:07.653Z,100878.52
2017-11-24T18:40:10.946Z,100885.27
2017-11-24T18:42:14.245Z,100885.36
2017-11-24T18:44:17.554Z,100884.52
2017-11-24T18:46:21.037Z,100881.39
2017-11-24T18:48:24.391Z,100882.83
2017-11-24T18:50:27.704Z,100885.95
2017-11-24T18:52:31.111Z,100883.80
2017-11-24T18:54:34.402Z,100887.85
2017-11-24T18:56:37.819Z,100888.78
2017-11-24T18:58:41.110Z,100888.36
2017-11-24T19:00:44.522Z,100883.47
2017-11-24T19:02:47.858Z,100882.12
2017-11-24T19:04:51.155Z,100885.33
2017-11-24T19:06:54.602Z,100880.94
2017-11-24T19:08:57.937Z,100881.88
2017-11-24T19:11:01.303Z,100880.52
2017-11-24T19:13:04.608Z,100880.23
2017-11-24T19:15:07.952Z,100887.28
2017-11-24T19:17:11.247Z,100882.92
2017-11-24T19:19:14.549Z,100880.23
2017-11-24T19:21:17.858Z,100886.56
2017-11-24T19:23:21.270Z,100884.79
2017-11-24T19:25:24.578Z,100888.42
2017-11-24T19:27:27.906Z,100886.70
2017-11-24T19:29:31.206Z,100884.94
2017-11-24T19:31:34.497Z,100883.16
2017-11-24T19:33:38.158Z,100881.94
2017-11-24T19:35:41.514Z,100884.64
2017-11-24T19:37:44.873Z,100877.97
2017-11-24T19:39:48.296Z,100876.62
2017-11-24T19:41:51.800Z,100873.50
2017-11-24T19:43:55.102Z,100871.30
2017-11-24T19:45:58.948Z,100873.16
2017-11-24T19:48:03.182Z,100870.97
2017-11-24T19:50:06.851Z,100877.73
2017-11-24T19:52:10.290Z,100877.43
2017-11-24T19:54:14.148Z,100873.80
2017-11-24T19:56:18.155Z,100876.50
2017-11-24T19:58:21.936Z,100872.20
2017-11-24T20:00:25.502Z,100874.39
2017-11-24T20:02:29.080Z,100871.78
2017-11-24T20:04:37.930Z,100863.26
2017-11-24T20:06:46.534Z,100863.38
2017-11-24T20:08:52.067Z,100861.28
2017-11-24T20:10:55.386Z,100863.05
2017-11-24T20:12:58.677Z,100858.58
2017-11-24T20:15:02.035Z,100853.77
2017-11-24T20:17:05.402Z,100848.48
2017-11-24T20:19:08.699Z,100846.17
2017-11-24T20:21:12.748Z,100849.30
2017-11-24T20:23:16.443Z,100848.48
2017-11-24T20:25:19.754Z,100848.07
2017-11-24T20:27:23.049Z,100841.83
2017-11-24T20:29:26.377Z,100851.38
2017-11-24T20:31:29.678Z,100848.67
2017-11-24T20:33:32.985Z,100845.55
2017-11-24T20:35:36.489Z,100843.27
2017-11-24T20:37:39.866Z,100849.18
2017-11-24T20:39:43.188Z,100848.76
2017-11-24T20:41:46.510Z,100843.86
2017-11-24T20:43:49.807Z,100847.11
2017-11-24T20:45:53.097Z,100839.00
2017-11-24T20:47:56.416Z,100838.04
2017-11-24T20:49:59.870Z,100827.77
2017-11-24T20:52:03.192Z,100831.83
2017-11-24T20:54:06.537Z,100828.80
2017-11-24T20:56:09.814Z,100830.57
2017-11-24T20:58:13.106Z,100827.02
2017-11-24T21:00:16.545Z,100828.89
2017-11-24T21:02:19.852Z,100831.59
2017-11-24T21:04:23.152Z,100827.11
2017-11-24T21:06:26.474Z,100826.70
2017-11-24T21:08:29.787Z,100828.89
2017-11-24T21:10:33.085Z,100826.27
2017-11-24T21:12:36.410Z,100823.16
2017-11-24T21:14:39.722Z,100824.63
2017-11-24T21:16:43.028Z,100826.39
2017-11-24T21:18:46.410Z,100817.96
2017-11-24T21:20:49.722Z,100820.58
2017-11-24T21:22:53.030Z,100821.17
2017-11-24T21:24:56.409Z,100821.17
2017-11-24T21:26:59.707Z,100811.30
2017-11-24T21:29:03.001Z,100814.51
2017-11-24T21:31:06.342Z,100816.70
2017-11-24T21:33:09.649Z,100809.95
2017-11-24T21:35:12.946Z,100805.98
2017-11-24T21:37:16.309Z,100809.23
2017-11-24T21:39:19.657Z,100808.81
2017-11-24T21:41:22.950Z,100809.23
2017-11-24T21:43:26.273Z,100810.16
2017-11-24T21:45:29.597Z,100806.62
2017-11-24T21:47:32.894Z,100802.98
2017-11-24T21:49:36.307Z,100798.09
2017-11-24T21:51:39.811Z,100794.45
2017-11-24T21:53:43.105Z,100785.94
2017-11-24T21:55:46.485Z,100779.60
2017-11-24T21:57:49.809Z,100786.95
2017-11-24T21:59:53.127Z,100790.08
2017-11-24T22:01:56.456Z,100784.25
2017-11-24T22:03:59.852Z,100779.78
2017-11-24T22:06:03.149Z,100776.57
2017-11-24T22:08:06.462Z,100770.42
2017-11-24T22:10:09.783Z,100769.06
2017-11-24T22:12:13.077Z,100760.97
2017-11-24T22:14:16.404Z,100759.31
2017-11-24T22:16:19.693Z,100762.95
2017-11-24T22:18:23.017Z,100763.88
2017-11-24T22:20:26.367Z,100757.55
2017-11-24T22:22:29.665Z,100756.70
2017-11-24T22:24:32.998Z,100750.97
2017-11-24T22:26:36.309Z,100756.80
2017-11-24T22:28:39.649Z,100753.58
2017-11-24T22:30:42.949Z,100758.15
2017-11-24T22:32:46.274Z,100753.38
2017-11-24T22:34:49.554Z,100754.22
2017-11-24T22:36:52.857Z,100755.95
2017-11-24T22:38:56.178Z,100760.84
2017-11-24T22:40:59.465Z,100759.20
2017-11-24T22:43:02.762Z,100757.84
2017-11-24T22:45:06.090Z,100753.67
2017-11-24T22:47:09.382Z,100746.11
2017-11-24T22:49:12.725Z,100743.92
2017-11-24T22:51:16.056Z,100747.14
2017-11-24T22:53:19.369Z,100749.00
2017-11-24T22:55:22.662Z,100747.64
2017-11-24T22:57:25.993Z,100746.80
2017-11-24T22:59:30.106Z,100745.03
2017-11-24T23:01:33.401Z,100743.69
2017-11-24T23:03:36.739Z,100745.97
2017-11-24T23:05:40.027Z,100740.14
2017-11-24T23:07:43.317Z,100750.14
2017-11-24T23:09:46.646Z,100742.03
2017-11-24T23:11:50.043Z,100739.84
2017-11-24T23:13:53.446Z,100733.39
2017-11-24T23:15:56.775Z,100733.52
2017-11-24T23:18:00.109Z,100735.37
2017-11-24T23:20:03.408Z,100731.83
2017-11-24T23:22:06.743Z,100738.08
2017-11-24T23:24:10.049Z,100732.77
2017-11-24T23:26:13.337Z,100739.00
2017-11-24T23:28:16.656Z,100739.52
2017-11-24T23:30:21.403Z,100736.39
2017-11-24T23:32:24.713Z,100734.53